Time;durP1;ratioP1;P1;durP2;ratioP2;P2;SDS_P1;SDS_P2;PMS_P1;PMS_P2;Temp;Humidity;BMP_temperature;BMP_pressure;BME280_temperature;BME280_humidity;BME280_pressure;Samples;Min_cycle;Max_cycle;Signal;HPM_P1;HPM_P2
2023/03/08 00:02:08;;;;;;;;;;;;;;;1.83;66.96;95181.81;5030238;28;20410;-74
2023/03/08 00:04:34;;;;;;;;;;;;;;;1.85;66.34;95180.81;5012487;28;19972;-73
2023/03/08 00:07:00;;;;;;;;;;;;;;;1.85;67.50;95186.00;5030221;28;19995;-73
2023/03/08 00:09:25;;;;;;;;;;;;;;;1.82;66.67;95182.81;5033464;28;19955;-73
2023/03/08 00:11:51;;;;;;;;;;;;;;;1.81;67.93;95180.44;5048503;28;19954;-73
2023/03/08 00:14:19;;;;;;;;;;;;;;;1.77;67.02;95174.06;5033887;28;19951;-74
2023/03/08 00:16:45;;;;;;;;;;;;;;;1.74;67.52;95177.84;5033477;28;19964;-74
2023/03/08 00:19:11;;;;;;;;;;;;;;;1.75;67.54;95183.78;5033479;28;19949;-73
2023/03/08 00:21:36;;;;;;;;;;;;;;;1.77;67.09;95177.44;5033741;28;19971;-73
2023/03/08 00:24:02;;;;;;;;;;;;;;;1.80;67.12;95186.56;5033933;28;19950;-73
2023/03/08 00:26:28;;;;;;;;;;;;;;;1.80;67.63;95189.16;5033770;28;19965;-73
2023/03/08 00:28:54;;;;;;;;;;;;;;;1.76;67.24;95198.28;5033560;28;19950;-74
2023/03/08 00:31:20;;;;;;;;;;;;;;;1.73;67.59;95193.53;5015964;28;19975;-74
2023/03/08 00:33:46;;;;;;;;;;;;;;;1.68;67.28;95198.47;5033437;28;19944;-74
2023/03/08 00:36:13;;;;;;;;;;;;;;;1.67;67.51;95196.88;5033344;28;19995;-73
2023/03/08 00:38:39;;;;;;;;;;;;;;;1.63;67.64;95199.03;5033683;28;19954;-74
2023/03/08 00:41:05;;;;;;;;;;;;;;;1.59;67.88;95196.03;5015287;28;19948;-74
2023/03/08 00:43:31;;;;;;;;;;;;;;;1.52;67.90;95177.13;5033206;28;19979;-74
2023/03/08 00:45:57;;;;;;;;;;;;;;;1.45;67.90;95158.25;5033380;28;19961;-74
2023/03/08 00:48:23;;;;;;;;;;;;;;;1.40;67.69;95165.75;5033356;28;20401;-74
2023/03/08 00:50:50;;;;;;;;;;;;;;;1.39;67.95;95172.72;5032875;28;19949;-74
2023/03/08 00:53:16;;;;;;;;;;;;;;;1.38;68.38;95167.72;5014708;28;19955;-74
2023/03/08 00:55:52;;;;;;;;;;;;;;;1.33;68.75;95170.91;5033474;28;19943;-73
2023/03/08 00:58:18;;;;;;;;;;;;;;;1.31;68.51;95172.88;5033008;28;19946;-73
2023/03/08 01:00:44;;;;;;;;;;;;;;;1.26;68.50;95174.41;5033043;28;19968;-74
2023/03/08 01:03:10;;;;;;;;;;;;;;;1.20;68.41;95174.22;5033107;28;19955;-73
2023/03/08 01:05:40;;;;;;;;;;;;;;;1.16;68.56;95174.78;5032783;28;20317;-74
2023/03/08 01:08:05;;;;;;;;;;;;;;;1.17;68.70;95169.41;5033044;28;19954;-73
2023/03/08 01:10:31;;;;;;;;;;;;;;;1.20;69.19;95166.47;5032842;28;20032;-73
2023/03/08 01:12:57;;;;;;;;;;;;;;;1.21;68.70;95162.09;5032630;28;20033;-74
2023/03/08 01:15:23;;;;;;;;;;;;;;;1.21;68.53;95144.00;5032851;28;20407;-73
2023/03/08 01:17:49;;;;;;;;;;;;;;;1.21;68.40;95149.97;5032815;28;19953;-73
2023/03/08 01:20:15;;;;;;;;;;;;;;;1.20;68.68;95145.00;5021004;28;19949;-74
2023/03/08 01:22:40;;;;;;;;;;;;;;;1.17;68.80;95142.81;5032685;28;19945;-73
2023/03/08 01:25:06;;;;;;;;;;;;;;;1.10;69.53;95145.34;5032915;28;20422;-73
2023/03/08 01:27:32;;;;;;;;;;;;;;;1.07;69.34;95130.25;5032575;28;19947;-74
2023/03/08 01:29:58;;;;;;;;;;;;;;;1.06;69.04;95126.06;5032785;28;19951;-73
2023/03/08 01:32:25;;;;;;;;;;;;;;;1.06;69.05;95125.28;5033141;28;19988;-73
2023/03/08 01:34:51;;;;;;;;;;;;;;;1.01;69.46;95123.28;5032004;28;20317;-74
2023/03/08 01:37:17;;;;;;;;;;;;;;;0.98;69.16;95115.91;5032606;28;19946;-73
2023/03/08 01:39:43;;;;;;;;;;;;;;;0.95;68.99;95113.72;5032241;28;19950;-74
2023/03/08 01:42:09;;;;;;;;;;;;;;;0.91;69.23;95105.53;5032537;28;19951;-73
2023/03/08 01:44:48;;;;;;;;;;;;;;;0.87;70.83;95101.75;5032094;28;19994;-74
2023/03/08 01:47:34;;;;;;;;;;;;;;;0.79;70.00;95104.47;5032590;28;19963;-73
2023/03/08 01:50:04;;;;;;;;;;;;;;;0.78;70.02;95082.25;5032092;28;19948;-73
2023/03/08 01:52:31;;;;;;;;;;;;;;;0.78;69.95;95079.66;5031731;28;20348;-74
2023/03/08 01:54:59;;;;;;;;;;;;;;;0.80;69.99;95080.28;5031959;28;20298;-73
2023/03/08 01:57:27;;;;;;;;;;;;;;;0.79;70.43;95078.66;5032639;28;19949;-73
2023/03/08 01:59:55;;;;;;;;;;;;;;;0.77;70.71;95075.47;5032083;28;19944;-73
2023/03/08 02:02:24;;;;;;;;;;;;;;;0.77;70.53;95076.28;5020702;28;20296;-74
2023/03/08 02:04:50;;;;;;;;;;;;;;;0.76;70.52;95074.69;5031795;28;19969;-75
2023/03/08 02:07:16;;;;;;;;;;;;;;;0.77;70.32;95067.75;5031998;28;20313;-74
2023/03/08 02:09:42;;;;;;;;;;;;;;;0.78;70.69;95080.47;5031870;28;19949;-74
2023/03/08 02:12:10;;;;;;;;;;;;;;;0.76;70.47;95074.69;5032004;28;19956;-73
2023/03/08 02:14:36;;;;;;;;;;;;;;;0.77;70.62;95070.31;5031622;28;19958;-74
2023/03/08 02:17:02;;;;;;;;;;;;;;;0.78;70.71;95066.78;5031766;28;20325;-74
2023/03/08 02:19:32;;;;;;;;;;;;;;;0.77;70.87;95068.53;5031675;28;20051;-74
2023/03/08 02:22:06;;;;;;;;;;;;;;;0.78;71.00;95066.78;5031729;28;20320;-73
2023/03/08 02:24:32;;;;;;;;;;;;;;;0.77;71.01;95067.75;5031500;28;19953;-73
2023/03/08 02:27:02;;;;;;;;;;;;;;;0.78;71.17;95061.59;5031829;28;19949;-73
2023/03/08 02:29:28;;;;;;;;;;;;;;;0.77;71.05;95065.94;5031701;28;19942;-73
2023/03/08 02:31:54;;;;;;;;;;;;;;;0.79;71.20;95060.59;5031321;28;19945;-73
2023/03/08 02:34:19;;;;;;;;;;;;;;;0.77;71.05;95053.06;5031463;28;19947;-74
2023/03/08 02:36:45;;;;;;;;;;;;;;;0.78;71.31;95043.53;5031633;28;19940;-73
2023/03/08 02:39:11;;;;;;;;;;;;;;;0.78;71.44;95038.38;5014238;28;19957;-73
2023/03/08 02:41:37;;;;;;;;;;;;;;;0.78;71.69;95033.22;5031308;28;19946;-73
2023/03/08 02:44:03;;;;;;;;;;;;;;;0.79;71.67;95030.44;5013417;28;19982;-73
2023/03/08 02:46:29;;;;;;;;;;;;;;;0.78;71.59;95030.66;5031431;28;20070;-73
2023/03/08 02:48:55;;;;;;;;;;;;;;;0.76;71.24;95028.25;5031534;28;19966;-73
2023/03/08 02:51:21;;;;;;;;;;;;;;;0.77;71.81;95019.50;5031879;28;19975;-73
2023/03/08 02:53:46;;;;;;;;;;;;;;;0.76;71.93;95012.78;5031414;28;19989;-73
2023/03/08 02:56:12;;;;;;;;;;;;;;;0.76;71.98;95015.34;5013433;28;19962;-73
2023/03/08 02:58:38;;;;;;;;;;;;;;;0.77;72.01;95008.41;5031151;28;19948;-73
2023/03/08 03:01:09;;;;;;;;;;;;;;;0.77;72.26;95006.59;5031143;28;20008;-73
2023/03/08 03:03:35;;;;;;;;;;;;;;;0.79;72.14;94993.53;5030972;28;20327;-73
2023/03/08 03:06:00;;;;;;;;;;;;;;;0.79;72.33;94989.16;5031748;28;19967;-73
2023/03/08 03:08:28;;;;;;;;;;;;;;;0.81;72.07;94983.81;5031461;28;19958;-73
2023/03/08 03:10:53;;;;;;;;;;;;;;;0.77;71.99;94983.38;5030991;28;19946;-73
2023/03/08 03:13:19;;;;;;;;;;;;;;;0.79;72.38;94975.47;5031113;28;19959;-74
2023/03/08 03:15:45;;;;;;;;;;;;;;;0.82;72.74;94975.09;5013239;28;19964;-74
2023/03/08 03:18:11;;;;;;;;;;;;;;;0.84;72.60;94955.06;5031020;28;20016;-73
2023/03/08 03:20:37;;;;;;;;;;;;;;;0.84;72.05;94947.31;5030903;28;20480;-73
2023/03/08 03:23:03;;;;;;;;;;;;;;;0.86;72.10;94949.66;5030752;28;20001;-74
2023/03/08 03:25:29;;;;;;;;;;;;;;;0.83;71.89;94943.13;5030907;28;19965;-73
2023/03/08 03:27:55;;;;;;;;;;;;;;;0.83;71.71;94932.00;5030623;28;20447;-73
2023/03/08 03:30:21;;;;;;;;;;;;;;;0.84;72.20;94929.25;5030917;28;19948;-73
2023/03/08 03:32:47;;;;;;;;;;;;;;;0.87;71.84;94913.34;5030479;28;19951;-74
2023/03/08 03:35:12;;;;;;;;;;;;;;;0.86;71.69;94909.19;5045919;28;19947;-73
2023/03/08 03:37:38;;;;;;;;;;;;;;;0.85;72.46;94923.06;5030742;28;19955;-73
2023/03/08 03:40:04;;;;;;;;;;;;;;;0.83;72.16;94903.63;5030815;28;20049;-73
2023/03/08 03:42:30;;;;;;;;;;;;;;;0.77;72.04;94907.78;5030529;28;20185;-74
2023/03/08 03:44:56;;;;;;;;;;;;;;;0.72;72.57;94912.72;5033905;28;19972;-73
2023/03/08 03:47:22;;;;;;;;;;;;;;;0.68;73.03;94927.78;5034090;28;20002;-73
2023/03/08 03:49:48;;;;;;;;;;;;;;;0.63;72.81;94921.63;5034268;28;20475;-73
2023/03/08 03:52:14;;;;;;;;;;;;;;;0.62;73.40;94925.19;5015503;28;20006;-73
2023/03/08 03:54:39;;;;;;;;;;;;;;;0.59;72.48;94922.00;5033980;28;20933;-73
2023/03/08 03:57:05;;;;;;;;;;;;;;;0.58;73.00;94928.16;5034097;28;19949;-73
2023/03/08 03:59:32;;;;;;;;;;;;;;;0.59;73.36;94932.34;5033903;28;19946;-74
2023/03/08 04:01:58;;;;;;;;;;;;;;;0.62;73.08;94931.13;5033667;28;19958;-74
2023/03/08 04:04:24;;;;;;;;;;;;;;;0.66;73.10;94919.44;5034220;28;20392;-73
2023/03/08 04:06:50;;;;;;;;;;;;;;;0.68;73.22;94912.31;5033555;28;20369;-73
2023/03/08 04:09:17;;;;;;;;;;;;;;;0.72;72.90;94905.78;5033837;28;20068;-74
2023/03/08 04:11:43;;;;;;;;;;;;;;;0.74;72.80;94903.81;5033668;28;19947;-73
2023/03/08 04:14:09;;;;;;;;;;;;;;;0.74;72.86;94893.47;5033856;28;19971;-73
2023/03/08 04:16:36;;;;;;;;;;;;;;;0.75;72.89;94891.69;5033445;28;19952;-74
2023/03/08 04:19:06;;;;;;;;;;;;;;;0.76;72.95;94888.13;5033099;28;19945;-73
2023/03/08 04:21:32;;;;;;;;;;;;;;;0.74;72.93;94898.66;5019002;28;19948;-73
2023/03/08 04:23:58;;;;;;;;;;;;;;;0.75;72.91;94902.00;5033484;28;19947;-74
2023/03/08 04:26:24;;;;;;;;;;;;;;;0.75;73.15;94907.16;5018616;28;20010;-74
2023/03/08 04:28:50;;;;;;;;;;;;;;;0.76;73.56;94906.97;5032695;28;20033;-75
2023/03/08 04:31:18;;;;;;;;;;;;;;;0.77;73.38;94910.34;5033217;28;19952;-74
2023/03/08 04:33:44;;;;;;;;;;;;;;;0.77;73.30;94900.81;5033140;28;19943;-73
2023/03/08 04:36:11;;;;;;;;;;;;;;;0.78;72.97;94891.31;5033465;28;20366;-74
2023/03/08 04:38:37;;;;;;;;;;;;;;;0.80;73.31;94884.19;5033496;28;19969;-73
2023/03/08 04:41:06;;;;;;;;;;;;;;;0.81;73.24;94881.38;5033292;28;19955;-74
2023/03/08 04:43:33;;;;;;;;;;;;;;;0.76;72.83;94876.03;5033023;28;19973;-74
2023/03/08 04:45:59;;;;;;;;;;;;;;;0.73;72.92;94873.03;5033534;28;20330;-73
2023/03/08 04:48:25;;;;;;;;;;;;;;;0.72;73.09;94876.63;5015360;28;20437;-74
2023/03/08 04:50:54;;;;;;;;;;;;;;;0.71;74.09;94867.28;5033565;28;20423;-73
2023/03/08 04:53:20;;;;;;;;;;;;;;;0.69;73.24;94856.34;5033068;28;20313;-74
2023/03/08 04:55:46;;;;;;;;;;;;;;;0.70;74.15;94855.38;5032957;28;19971;-73
2023/03/08 04:58:13;;;;;;;;;;;;;;;0.70;73.58;94852.78;5032772;28;19944;-73
2023/03/08 05:00:38;;;;;;;;;;;;;;;0.69;74.20;94870.03;5032970;28;19943;-73
2023/03/08 05:03:05;;;;;;;;;;;;;;;0.70;74.19;94871.63;5032937;28;20452;-73
2023/03/08 05:05:31;;;;;;;;;;;;;;;0.73;73.76;94870.44;5032747;28;20324;-73
2023/03/08 05:07:58;;;;;;;;;;;;;;;0.72;74.14;94864.50;5032982;28;19951;-72
2023/03/08 05:10:24;;;;;;;;;;;;;;;0.71;73.96;94857.75;5032659;28;19958;-78
2023/03/08 05:12:50;;;;;;;;;;;;;;;0.73;73.61;94850.59;5032619;28;20334;-73
2023/03/08 05:15:16;;;;;;;;;;;;;;;0.76;73.35;94850.22;5016012;28;19968;-73
2023/03/08 05:17:42;;;;;;;;;;;;;;;0.77;74.19;94841.47;5032643;28;19987;-73
2023/03/08 05:20:08;;;;;;;;;;;;;;;0.77;73.81;94833.75;5032636;28;19950;-73
2023/03/08 05:22:34;;;;;;;;;;;;;;;0.79;74.21;94826.59;5032644;28;20015;-73
2023/03/08 05:25:00;;;;;;;;;;;;;;;0.78;74.35;94816.50;5032847;28;20077;-74
2023/03/08 05:27:26;;;;;;;;;;;;;;;0.77;74.13;94817.47;5032455;28;19954;-73
2023/03/08 05:29:51;;;;;;;;;;;;;;;0.76;74.54;94818.47;5031749;28;19998;-73
2023/03/08 05:32:17;;;;;;;;;;;;;;;0.73;75.28;94814.47;5032364;28;19994;-73
2023/03/08 05:34:43;;;;;;;;;;;;;;;0.74;75.48;94799.81;5032364;28;20005;-73
2023/03/08 05:37:09;;;;;;;;;;;;;;;0.75;75.13;94803.97;5014843;28;19955;-73
2023/03/08 05:39:35;;;;;;;;;;;;;;;0.75;75.41;94809.13;5032325;28;19993;-74
2023/03/08 05:42:01;;;;;;;;;;;;;;;0.77;74.34;94802.00;5032281;28;19957;-73
2023/03/08 05:44:26;;;;;;;;;;;;;;;0.80;74.87;94804.19;5032400;28;19973;-73
2023/03/08 05:46:52;;;;;;;;;;;;;;;0.82;75.20;94809.94;5032428;28;19997;-73
2023/03/08 05:49:18;;;;;;;;;;;;;;;0.85;74.70;94808.75;5032073;28;20009;-73
2023/03/08 05:51:44;;;;;;;;;;;;;;;0.89;74.76;94808.16;5032133;28;20037;-73
2023/03/08 05:54:10;;;;;;;;;;;;;;;0.92;75.07;94805.16;5031559;28;20016;-75
2023/03/08 05:56:36;;;;;;;;;;;;;;;0.94;74.27;94799.81;5031991;28;19990;-74
2023/03/08 05:59:01;;;;;;;;;;;;;;;0.94;74.78;94803.19;5015059;28;20003;-73
2023/03/08 06:01:27;;;;;;;;;;;;;;;0.96;75.23;94800.41;5031983;28;19996;-73
2023/03/08 06:03:56;;;;;;;;;;;;;;;1.00;74.94;94802.38;5032115;28;19947;-73
2023/03/08 06:06:24;;;;;;;;;;;;;;;1.04;74.46;94796.84;5031251;28;19968;-73
2023/03/08 06:08:50;;;;;;;;;;;;;;;1.07;74.34;94799.84;5031823;28;19954;-73
2023/03/08 06:11:16;;;;;;;;;;;;;;;1.09;74.58;94791.88;5032056;28;19952;-74
2023/03/08 06:13:42;;;;;;;;;;;;;;;1.10;74.66;94778.78;5031808;28;19951;-73
2023/03/08 06:16:08;;;;;;;;;;;;;;;1.13;74.38;94773.19;5031815;28;20294;-73
2023/03/08 06:18:35;;;;;;;;;;;;;;;1.15;75.09;94770.44;5031771;28;19948;-73
2023/03/08 06:21:03;;;;;;;;;;;;;;;1.18;74.75;94767.47;5031796;28;19949;-73
2023/03/08 06:23:30;;;;;;;;;;;;;;;1.17;75.07;94768.44;5031835;28;20421;-73
2023/03/08 06:25:56;;;;;;;;;;;;;;;1.19;75.84;94782.72;5031428;28;19966;-73
2023/03/08 06:28:22;;;;;;;;;;;;;;;1.24;76.20;94776.16;5031211;28;19963;-74
2023/03/08 06:30:48;;;;;;;;;;;;;;;1.28;76.29;94774.78;5031513;28;19948;-73
2023/03/08 06:33:18;;;;;;;;;;;;;;;1.34;76.64;94766.22;5013971;28;19947;-73
2023/03/08 06:35:53;;;;;;;;;;;;;;;1.39;75.88;94748.34;5031460;28;20320;-77
2023/03/08 06:38:19;;;;;;;;;;;;;;;1.45;76.40;94757.88;5020917;28;19956;-73
2023/03/08 06:40:45;;;;;;;;;;;;;;;1.51;76.07;94749.31;5031552;28;19968;-73
2023/03/08 06:43:11;;;;;;;;;;;;;;;1.54;75.69;94741.16;5031428;28;20392;-72
2023/03/08 06:45:37;;;;;;;;;;;;;;;1.58;75.76;94732.00;5031293;28;20456;-73
2023/03/08 06:48:03;;;;;;;;;;;;;;;1.62;75.16;94734.97;5031327;28;19955;-74
2023/03/08 06:50:29;;;;;;;;;;;;;;;1.67;75.00;94731.78;5031243;28;19946;-74
2023/03/08 06:52:55;;;;;;;;;;;;;;;1.69;74.96;94722.03;5031185;28;20407;-74
2023/03/08 06:55:21;;;;;;;;;;;;;;;1.74;75.13;94719.63;5031225;28;20005;-74
2023/03/08 06:57:46;;;;;;;;;;;;;;;1.75;75.12;94714.25;5014063;28;20435;-74
2023/03/08 07:00:13;;;;;;;;;;;;;;;1.79;75.52;94718.00;5031545;28;19992;-73
2023/03/08 07:02:39;;;;;;;;;;;;;;;1.83;75.61;94726.16;5030652;28;19947;-73
2023/03/08 07:05:05;;;;;;;;;;;;;;;1.87;74.80;94713.59;5030931;28;20010;-73
2023/03/08 07:07:31;;;;;;;;;;;;;;;1.90;75.57;94713.97;5030940;28;20034;-73
2023/03/08 07:09:57;;;;;;;;;;;;;;;1.91;76.41;94715.59;5030926;28;19945;-73
2023/03/08 07:12:23;;;;;;;;;;;;;;;1.92;75.98;94704.22;5031342;28;19952;-73
2023/03/08 07:14:50;;;;;;;;;;;;;;;1.94;76.72;94706.63;5030941;28;20387;-73
2023/03/08 07:17:16;;;;;;;;;;;;;;;1.96;76.05;94696.88;5030384;28;19948;-73
2023/03/08 07:19:42;;;;;;;;;;;;;;;1.99;76.65;94702.38;5030274;28;20057;-74
2023/03/08 07:22:08;;;;;;;;;;;;;;;2.01;76.70;94699.59;5030631;28;20405;-74
2023/03/08 07:24:34;;;;;;;;;;;;;;;2.02;76.62;94691.66;5030859;28;20354;-73
2023/03/08 07:26:59;;;;;;;;;;;;;;;2.05;76.37;94694.81;5031418;28;19961;-73
2023/03/08 07:29:25;;;;;;;;;;;;;;;2.04;78.50;94696.63;5031008;28;19948;-73
2023/03/08 07:31:51;;;;;;;;;;;;;;;2.03;79.44;94684.69;5013477;28;19947;-73
2023/03/08 07:34:17;;;;;;;;;;;;;;;2.03;82.28;94689.84;5030648;28;19944;-73
2023/03/08 07:36:43;;;;;;;;;;;;;;;2.04;82.83;94673.34;5030653;28;19956;-73
2023/03/08 07:39:09;;;;;;;;;;;;;;;2.04;84.07;94675.94;5030417;28;20340;-74
2023/03/08 07:41:34;;;;;;;;;;;;;;;2.05;83.84;94664.59;5030757;28;20420;-73
2023/03/08 07:44:01;;;;;;;;;;;;;;;2.08;83.13;94669.34;5030530;28;20482;-74
2023/03/08 07:46:27;;;;;;;;;;;;;;;2.14;82.88;94647.03;5029873;28;19972;-74
2023/03/08 07:48:53;;;;;;;;;;;;;;;2.18;82.39;94640.44;5030354;28;20000;-75
2023/03/08 07:51:19;;;;;;;;;;;;;;;2.21;85.01;94648.56;5031219;28;19947;-74
2023/03/08 07:53:45;;;;;;;;;;;;;;;2.25;82.79;94625.69;5030507;28;20006;-74
2023/03/08 07:56:10;;;;;;;;;;;;;;;2.30;83.78;94630.22;5045786;28;19949;-73
2023/03/08 07:58:37;;;;;;;;;;;;;;;2.36;82.38;94609.47;5029735;28;19959;-73
2023/03/08 08:01:07;;;;;;;;;;;;;;;2.39;83.23;94609.06;5030532;28;19952;-74
2023/03/08 08:03:33;;;;;;;;;;;;;;;2.41;82.15;94585.53;5030119;28;19940;-75
2023/03/08 08:06:03;;;;;;;;;;;;;;;2.42;82.37;94572.41;5030472;28;19984;-74
2023/03/08 08:08:29;;;;;;;;;;;;;;;2.46;82.54;94567.59;5030080;28;19940;-73
2023/03/08 08:10:55;;;;;;;;;;;;;;;2.53;82.06;94567.53;5030865;28;20396;-74
2023/03/08 08:13:21;;;;;;;;;;;;;;;2.60;82.35;94561.31;5030056;28;19993;-73
2023/03/08 08:15:56;;;;;;;;;;;;;;;2.68;82.92;94556.84;5029993;28;19947;-74
2023/03/08 08:18:21;;;;;;;;;;;;;;;2.71;82.21;94549.44;5030193;28;19972;-74
2023/03/08 08:20:47;;;;;;;;;;;;;;;2.75;82.17;94552.38;5031058;28;19947;-74
2023/03/08 08:23:13;;;;;;;;;;;;;;;2.85;81.50;94552.66;5012519;28;19975;-73
2023/03/08 08:25:39;;;;;;;;;;;;;;;2.95;81.13;94552.19;5045312;28;19986;-73
2023/03/08 08:28:05;;;;;;;;;;;;;;;2.98;82.07;94544.78;5030800;28;19970;-75
2023/03/08 08:30:31;;;;;;;;;;;;;;;3.03;82.17;94536.34;5032528;28;19957;-73
2023/03/08 08:33:00;;;;;;;;;;;;;;;3.07;81.18;94521.97;5033762;28;20322;-74
2023/03/08 08:35:25;;;;;;;;;;;;;;;3.12;80.54;94509.13;5033307;28;19960;-74
2023/03/08 08:37:51;;;;;;;;;;;;;;;3.17;81.50;94514.47;5033282;28;19950;-73
2023/03/08 08:40:17;;;;;;;;;;;;;;;3.26;81.59;94514.94;5015778;28;19950;-73
2023/03/08 08:42:43;;;;;;;;;;;;;;;3.36;82.50;94517.81;5033246;28;19951;-74
2023/03/08 08:45:09;;;;;;;;;;;;;;;3.48;81.95;94517.03;5033520;28;20002;-73
2023/03/08 08:47:35;;;;;;;;;;;;;;;3.52;81.01;94506.00;5017056;28;19969;-74
2023/03/08 08:50:01;;;;;;;;;;;;;;;3.51;81.22;94504.44;5033117;28;19990;-74
2023/03/08 08:52:27;;;;;;;;;;;;;;;3.54;81.32;94508.38;5033184;28;19951;-74
2023/03/08 08:54:53;;;;;;;;;;;;;;;3.53;81.78;94505.00;5033001;28;20045;-73
2023/03/08 08:57:18;;;;;;;;;;;;;;;3.53;81.93;94510.19;5032813;28;19947;-74
2023/03/08 08:59:45;;;;;;;;;;;;;;;3.57;83.26;94519.13;5033091;28;20322;-73
2023/03/08 09:02:11;;;;;;;;;;;;;;;3.56;84.09;94520.09;5032980;28;20330;-74
2023/03/08 09:04:37;;;;;;;;;;;;;;;3.57;85.18;94533.84;5032955;28;19957;-73
2023/03/08 09:07:03;;;;;;;;;;;;;;;3.58;84.02;94531.03;5032729;28;20030;-73
2023/03/08 09:09:29;;;;;;;;;;;;;;;3.62;85.44;94534.00;5032780;28;19949;-74
2023/03/08 09:11:55;;;;;;;;;;;;;;;3.66;85.54;94527.34;5032878;28;20363;-74
2023/03/08 09:14:21;;;;;;;;;;;;;;;3.71;86.49;94518.91;5022565;28;20417;-73
2023/03/08 09:16:47;;;;;;;;;;;;;;;3.74;84.77;94508.09;5032594;28;19948;-73
2023/03/08 09:19:14;;;;;;;;;;;;;;;3.78;84.54;94507.44;5015168;28;20048;-73
2023/03/08 09:21:40;;;;;;;;;;;;;;;3.81;85.31;94509.56;5032531;28;19944;-73
2023/03/08 09:24:08;;;;;;;;;;;;;;;3.88;85.29;94496.50;5032664;28;20000;-74
2023/03/08 09:26:34;;;;;;;;;;;;;;;3.96;85.57;94503.16;5032547;28;19959;-75
2023/03/08 09:29:03;;;;;;;;;;;;;;;4.05;84.95;94486.25;5033564;28;20286;-73
2023/03/08 09:31:29;;;;;;;;;;;;;;;4.18;84.54;94474.88;5033123;28;19960;-74
2023/03/08 09:33:55;;;;;;;;;;;;;;;4.27;85.68;94478.72;5032263;28;20388;-73
2023/03/08 09:36:21;;;;;;;;;;;;;;;4.37;87.00;94481.53;5032316;28;19954;-74
2023/03/08 09:38:48;;;;;;;;;;;;;;;4.54;86.30;94480.84;5032544;28;19999;-74
2023/03/08 09:41:26;;;;;;;;;;;;;;;4.58;85.45;94469.75;5031396;28;20413;-74
2023/03/08 09:44:04;;;;;;;;;;;;;;;4.66;86.04;94472.00;5032121;28;19976;-74
2023/03/08 09:46:33;;;;;;;;;;;;;;;4.73;86.16;94473.69;5032109;28;19976;-73
2023/03/08 09:49:02;;;;;;;;;;;;;;;4.80;85.56;94469.94;5032456;28;19951;-74
2023/03/08 09:51:31;;;;;;;;;;;;;;;4.84;87.65;94473.66;5032288;28;19945;-74
2023/03/08 09:54:02;;;;;;;;;;;;;;;4.85;85.84;94458.84;5031809;28;19951;-74
2023/03/08 09:56:35;;;;;;;;;;;;;;;4.84;85.72;94459.88;5032140;28;20323;-74
2023/03/08 09:59:06;;;;;;;;;;;;;;;4.83;85.87;94456.50;5021837;28;19947;-73
2023/03/08 10:01:51;;;;;;;;;;;;;;;4.84;87.27;94467.66;5032024;28;19948;-74
2023/03/08 10:04:28;;;;;;;;;;;;;;;4.85;88.77;94464.03;5032781;28;19945;-74
2023/03/08 10:07:09;;;;;;;;;;;;;;;4.88;87.84;94459.19;5032068;28;20439;-74
2023/03/08 10:09:38;;;;;;;;;;;;;;;4.93;91.62;94465.50;5031868;28;20390;-74
2023/03/08 10:12:23;;;;;;;;;;;;;;;4.96;91.73;94459.84;5031783;28;20408;-74
2023/03/08 10:14:53;;;;;;;;;;;;;;;5.01;91.35;94452.13;5031544;28;19961;-73
2023/03/08 10:17:21;;;;;;;;;;;;;;;5.08;91.45;94439.78;5014416;28;19955;-73
2023/03/08 10:19:56;;;;;;;;;;;;;;;5.18;94.92;94447.75;5014428;28;19946;-74
2023/03/08 10:22:26;;;;;;;;;;;;;;;5.32;96.49;94442.31;5017673;28;19950;-73
2023/03/08 10:25:11;;;;;;;;;;;;;;;5.46;97.68;94444.38;5031662;28;19950;-74
2023/03/08 10:27:37;;;;;;;;;;;;;;;5.63;96.51;94438.41;5031379;28;19959;-73
2023/03/08 10:30:12;;;;;;;;;;;;;;;5.79;96.63;94436.81;5031650;28;20407;-73
2023/03/08 10:32:42;;;;;;;;;;;;;;;5.98;98.79;94426.97;5031678;28;20328;-74
2023/03/08 10:35:08;;;;;;;;;;;;;;;6.17;97.33;94417.88;5031661;28;19951;-74
2023/03/08 10:37:34;;;;;;;;;;;;;;;6.40;96.18;94403.06;5031330;28;19947;-73
2023/03/08 10:40:04;;;;;;;;;;;;;;;6.63;96.62;94404.66;5031539;28;19950;-73
2023/03/08 10:42:31;;;;;;;;;;;;;;;6.82;95.16;94402.50;5031404;28;19942;-74
2023/03/08 10:44:59;;;;;;;;;;;;;;;6.96;94.40;94400.31;5031410;28;19979;-74
2023/03/08 10:47:24;;;;;;;;;;;;;;;7.10;95.37;94399.69;5031136;28;19995;-74
2023/03/08 10:50:09;;;;;;;;;;;;;;;7.26;94.03;94394.59;5031347;28;19948;-74
2023/03/08 10:52:35;;;;;;;;;;;;;;;7.48;93.45;94397.16;5031371;28;20422;-75
2023/03/08 10:55:12;;;;;;;;;;;;;;;7.65;92.39;94389.19;5031105;28;19947;-74
2023/03/08 10:57:39;;;;;;;;;;;;;;;7.78;91.29;94378.31;5013569;28;19949;-74
2023/03/08 11:00:18;;;;;;;;;;;;;;;7.86;90.87;94374.47;5031004;28;19958;-74
2023/03/08 11:02:45;;;;;;;;;;;;;;;7.97;90.54;94375.31;5031081;28;19954;-74
2023/03/08 11:05:17;;;;;;;;;;;;;;;8.09;90.29;94370.69;5031645;28;19951;-74
2023/03/08 11:07:49;;;;;;;;;;;;;;;8.22;89.84;94372.84;5031233;28;19964;-74
2023/03/08 11:10:16;;;;;;;;;;;;;;;8.42;88.88;94369.59;5013525;28;19950;-74
2023/03/08 11:12:43;;;;;;;;;;;;;;;8.73;87.94;94357.41;5031055;28;19951;-74
2023/03/08 11:15:16;;;;;;;;;;;;;;;8.90;86.48;94351.16;5030626;28;19953;-73
2023/03/08 11:17:50;;;;;;;;;;;;;;;9.02;86.25;94345.69;5030895;28;19952;-74
2023/03/08 11:20:40;;;;;;;;;;;;;;;9.13;85.95;94350.69;5030820;28;19943;-74
2023/03/08 11:23:17;;;;;;;;;;;;;;;9.25;84.84;94337.34;5013234;28;19949;-74
2023/03/08 11:25:44;;;;;;;;;;;;;;;9.30;84.71;94342.59;5030833;28;19962;-73
2023/03/08 11:28:23;;;;;;;;;;;;;;;9.37;84.01;94318.78;5030711;28;19966;-73
2023/03/08 11:30:52;;;;;;;;;;;;;;;9.45;84.02;94343.63;5030936;28;20013;-74
2023/03/08 11:33:53;;;;;;;;;;;;;;;9.54;83.77;94331.59;5030648;28;19949;-74
2023/03/08 11:36:37;;;;;;;;;;;;;;;9.61;83.45;94332.09;5051273;28;19986;-74
2023/03/08 11:39:23;;;;;;;;;;;;;;;9.69;83.16;94330.81;5032611;28;20332;-74
2023/03/08 11:41:51;;;;;;;;;;;;;;;9.73;83.22;94337.06;5030125;28;19951;-73
2023/03/08 11:44:31;;;;;;;;;;;;;;;9.70;83.00;94334.97;5030364;28;19980;-74
2023/03/08 11:46:57;;;;;;;;;;;;;;;9.67;83.44;94332.91;5030352;28;20051;-74
2023/03/08 11:49:26;;;;;;;;;;;;;;;9.66;83.53;94339.97;5030699;28;19977;-73
2023/03/08 11:52:12;;;;;;;;;;;;;;;9.65;83.64;94343.63;5030413;28;19941;-73
2023/03/08 11:54:52;;;;;;;;;;;;;;;9.67;83.67;94344.13;5029638;28;20399;-75
2023/03/08 11:57:19;;;;;;;;;;;;;;;9.71;83.93;94344.41;5030246;28;19955;-75
2023/03/08 11:59:56;;;;;;;;;;;;;;;9.73;83.91;94344.94;5013192;28;19957;-74
2023/03/08 12:02:27;;;;;;;;;;;;;;;9.72;83.93;94338.91;5030321;28;19946;-75
2023/03/08 12:05:08;;;;;;;;;;;;;;;9.71;84.49;94345.19;5032378;28;19938;-74
2023/03/08 12:07:42;;;;;;;;;;;;;;;9.71;83.90;94350.41;5016480;28;20433;-74
2023/03/08 12:10:11;;;;;;;;;;;;;;;9.72;84.17;94345.97;5033566;28;19945;-73
2023/03/08 12:12:55;;;;;;;;;;;;;;;9.84;84.14;94349.09;5033887;28;20393;-74
2023/03/08 12:15:38;;;;;;;;;;;;;;;10.06;83.65;94340.16;5033650;28;19982;-74
2023/03/08 12:18:06;;;;;;;;;;;;;;;10.30;82.59;94317.56;5023761;28;19953;-73
2023/03/08 12:20:35;;;;;;;;;;;;;;;10.50;82.10;94323.81;5033557;28;19949;-73
2023/03/08 12:23:12;;;;;;;;;;;;;;;10.66;80.80;94327.13;5033510;28;19951;-74
2023/03/08 12:25:39;;;;;;;;;;;;;;;10.79;80.54;94323.88;5033572;28;19944;-74
2023/03/08 12:28:19;;;;;;;;;;;;;;;10.95;80.11;94311.47;5033674;28;19965;-73
2023/03/08 12:31:07;;;;;;;;;;;;;;;11.17;79.93;94319.72;5033539;28;19945;-73
2023/03/08 12:33:33;;;;;;;;;;;;;;;11.44;78.41;94313.22;5033417;28;19986;-74
2023/03/08 12:36:00;;;;;;;;;;;;;;;11.47;77.53;94307.44;5033234;28;20426;-74
2023/03/08 12:38:29;;;;;;;;;;;;;;;11.36;77.85;94292.84;5033434;28;19943;-74
2023/03/08 12:40:54;;;;;;;;;;;;;;;11.42;78.02;94288.31;5033419;28;19951;-73
2023/03/08 12:43:20;;;;;;;;;;;;;;;11.45;77.61;94291.16;5033132;28;20040;-74
2023/03/08 12:45:55;;;;;;;;;;;;;;;11.52;77.83;94280.34;5033084;28;20001;-74
2023/03/08 12:48:23;;;;;;;;;;;;;;;11.51;77.23;94282.19;5033103;28;19962;-74
2023/03/08 12:50:52;;;;;;;;;;;;;;;11.44;77.80;94294.84;5033199;28;19953;-74
2023/03/08 12:53:38;;;;;;;;;;;;;;;11.44;77.80;94302.72;5033160;28;19952;-74
2023/03/08 12:56:05;;;;;;;;;;;;;;;11.41;79.11;94316.41;5018437;28;19953;-74
2023/03/08 12:58:33;;;;;;;;;;;;;;;11.40;79.40;94333.19;5033006;28;20293;-74
2023/03/08 13:01:00;;;;;;;;;;;;;;;11.43;79.55;94313.50;5015389;28;19959;-74